createdAt,value
2022-12-18T00:02:24.413Z,77.30
2022-12-18T00:04:55.692Z,84.15
2022-12-18T00:07:26.742Z,70.28
2022-12-18T00:09:59.365Z,74.88
2022-12-18T00:12:32.930Z,86.95
2022-12-18T00:15:04.243Z,78.10
2022-12-18T00:17:35.231Z,77.32
2022-12-18T00:20:09.012Z,79.00
2022-12-18T00:22:40.117Z,74.65
2022-12-18T00:25:12.072Z,67.28
2022-12-18T00:27:45.512Z,72.43
2022-12-18T00:30:17.020Z,81.40
2022-12-18T00:32:50.375Z,78.85
2022-12-18T00:35:21.929Z,81.70
2022-12-18T00:37:55.036Z,82.38
2022-12-18T00:40:26.555Z,88.30
2022-12-18T00:42:58.544Z,85.60
2022-12-18T00:45:37.196Z,88.55
2022-12-18T00:48:13.823Z,72.45
2022-12-18T00:50:45.419Z,89.80
2022-12-18T00:53:16.852Z,79.28
2022-12-18T00:55:49.487Z,75.80
2022-12-18T00:58:23.334Z,79.55
2022-12-18T01:00:54.935Z,93.63
2022-12-18T01:03:26.242Z,86.63
2022-12-18T01:05:57.858Z,91.82
2022-12-18T01:08:29.305Z,85.75
2022-12-18T01:11:00.810Z,81.13
2022-12-18T01:13:34.661Z,78.75
2022-12-18T01:16:06.494Z,80.13
2022-12-18T01:18:37.795Z,88.90
2022-12-18T01:21:11.290Z,84.35
2022-12-18T01:23:42.540Z,88.75
2022-12-18T01:26:18.040Z,80.43
2022-12-18T01:28:53.160Z,89.18
2022-12-18T01:31:26.720Z,85.93
2022-12-18T01:33:59.858Z,89.60
2022-12-18T01:36:32.942Z,87.15
2022-12-18T01:39:05.113Z,86.30
2022-12-18T01:41:51.518Z,90.10
2022-12-18T01:45:04.866Z,91.47
2022-12-18T01:47:48.939Z,81.57
2022-12-18T01:50:23.673Z,83.50
2022-12-18T01:52:59.311Z,83.88
2022-12-18T01:55:33.523Z,84.97
2022-12-18T01:58:05.730Z,86.40
2022-12-18T02:00:37.843Z,80.38
2022-12-18T02:03:12.358Z,82.65
2022-12-18T02:05:50.546Z,87.85
2022-12-18T02:08:26.134Z,89.43
2022-12-18T02:11:07.417Z,89.90
2022-12-18T02:13:50.385Z,97.72
2022-12-18T02:16:28.516Z,85.13
2022-12-18T02:19:10.231Z,99.47
2022-12-18T02:21:52.064Z,95.20
2022-12-18T02:24:33.710Z,102.40
2022-12-18T02:27:09.915Z,98.93
2022-12-18T02:29:50.565Z,93.18
2022-12-18T02:32:31.015Z,98.18
2022-12-18T02:35:03.593Z,91.45
2022-12-18T02:37:38.963Z,94.40
2022-12-18T02:40:13.397Z,91.05
2022-12-18T02:42:46.908Z,88.95
2022-12-18T02:45:18.363Z,81.53
2022-12-18T02:47:52.674Z,84.13
2022-12-18T02:50:29.678Z,84.78
2022-12-18T02:53:15.076Z,82.60
2022-12-18T02:55:57.658Z,88.85
2022-12-18T02:58:39.682Z,91.03
2022-12-18T03:01:19.236Z,97.63
2022-12-18T03:03:55.996Z,87.53
2022-12-18T03:06:32.000Z,87.97
2022-12-18T03:09:10.078Z,100.55
2022-12-18T03:12:00.586Z,91.57
2022-12-18T03:14:38.165Z,84.78
2022-12-18T03:17:15.721Z,89.05
2022-12-18T03:19:50.271Z,97.30
2022-12-18T03:22:23.710Z,85.93
2022-12-18T03:24:57.430Z,90.45
2022-12-18T03:27:32.329Z,87.68
2022-12-18T03:30:11.552Z,90.63
2022-12-18T03:32:48.067Z,99.38
2022-12-18T03:35:25.519Z,88.28
2022-12-18T03:37:57.609Z,95.85
2022-12-18T03:40:35.589Z,94.45
2022-12-18T03:43:14.520Z,98.00
2022-12-18T03:45:56.261Z,101.40
2022-12-18T03:48:36.709Z,94.35
2022-12-18T03:51:14.001Z,104.78
2022-12-18T03:53:52.959Z,117.95
2022-12-18T03:56:26.957Z,103.15
2022-12-18T03:59:01.782Z,113.07
2022-12-18T04:01:39.024Z,130.30
2022-12-18T04:04:14.460Z,129.82
2022-12-18T04:06:47.466Z,127.00
2022-12-18T04:09:19.742Z,118.10
2022-12-18T04:11:51.528Z,121.55
2022-12-18T04:14:23.016Z,114.35
2022-12-18T04:16:57.030Z,131.93
2022-12-18T04:19:28.286Z,142.30
2022-12-18T04:21:59.184Z,131.35
2022-12-18T04:24:30.944Z,152.82
2022-12-18T04:27:02.129Z,137.98
2022-12-18T04:29:33.473Z,138.23
2022-12-18T04:32:08.620Z,148.90
2022-12-18T04:34:42.694Z,136.25
2022-12-18T04:37:13.759Z,140.40
2022-12-18T04:39:45.239Z,142.18
2022-12-18T04:42:16.209Z,148.75
2022-12-18T04:44:48.756Z,141.50
2022-12-18T04:47:22.724Z,142.43
2022-12-18T04:49:56.532Z,129.38
2022-12-18T04:52:35.107Z,145.40
2022-12-18T04:55:07.715Z,120.40
2022-12-18T04:57:39.266Z,116.53
2022-12-18T05:00:12.420Z,129.20
2022-12-18T05:02:47.262Z,105.93
2022-12-18T05:05:19.594Z,132.40
2022-12-18T05:07:50.783Z,126.93
2022-12-18T05:10:23.357Z,133.32
2022-12-18T05:13:04.887Z,122.95
2022-12-18T05:15:37.573Z,122.47
2022-12-18T05:18:12.519Z,122.93
2022-12-18T05:20:46.083Z,120.47
2022-12-18T05:23:17.061Z,123.20
2022-12-18T05:25:56.096Z,119.10
2022-12-18T05:28:28.673Z,118.82
2022-12-18T05:31:03.368Z,118.93
2022-12-18T05:33:50.191Z,104.85
2022-12-18T05:36:25.536Z,108.88
2022-12-18T05:38:56.579Z,103.90
2022-12-18T05:41:30.676Z,102.05
2022-12-18T05:44:05.295Z,116.95
2022-12-18T05:46:39.965Z,106.13
2022-12-18T05:49:14.719Z,120.30
2022-12-18T05:51:47.219Z,123.25
2022-12-18T05:54:20.243Z,126.22
2022-12-18T05:56:51.557Z,126.80
2022-12-18T05:59:22.469Z,117.53
2022-12-18T06:01:54.343Z,120.45
2022-12-18T06:04:32.728Z,120.72
2022-12-18T06:07:04.208Z,119.63
2022-12-18T06:09:37.435Z,122.60
2022-12-18T06:12:09.918Z,134.00
2022-12-18T06:14:42.253Z,127.50
2022-12-18T06:17:13.920Z,118.03
2022-12-18T06:19:48.463Z,132.82
2022-12-18T06:22:21.022Z,123.50
2022-12-18T06:24:52.756Z,136.55
2022-12-18T06:27:25.344Z,148.60
2022-12-18T06:29:59.298Z,129.13
2022-12-18T06:32:31.140Z,121.00
2022-12-18T06:35:05.636Z,121.18
2022-12-18T06:37:38.356Z,129.90
2022-12-18T06:40:11.608Z,129.20
2022-12-18T06:42:44.977Z,131.20
2022-12-18T06:45:20.802Z,123.18
2022-12-18T06:47:53.393Z,148.60
2022-12-18T06:50:28.781Z,128.60
2022-12-18T06:53:03.334Z,122.80
2022-12-18T06:55:36.367Z,125.88
2022-12-18T06:58:10.361Z,129.57
2022-12-18T07:00:45.580Z,132.18
2022-12-18T07:03:18.730Z,112.60
2022-12-18T07:05:55.133Z,121.40
2022-12-18T07:08:26.902Z,98.82
2022-12-18T07:10:59.592Z,94.45
2022-12-18T07:13:31.764Z,104.03
2022-12-18T07:16:18.346Z,101.88
2022-12-18T07:18:58.517Z,105.88
2022-12-18T07:21:36.525Z,109.07
2022-12-18T07:24:12.064Z,111.25
2022-12-18T07:26:46.294Z,108.65
2022-12-18T07:29:17.994Z,105.60
2022-12-18T07:31:52.699Z,100.35
2022-12-18T07:34:24.906Z,99.15
2022-12-18T07:36:59.338Z,90.32
2022-12-18T07:39:33.392Z,101.75
2022-12-18T07:42:29.549Z,96.13
2022-12-18T07:45:04.019Z,90.03
2022-12-18T07:47:39.603Z,105.90
2022-12-18T07:50:12.652Z,105.30
2022-12-18T07:52:49.194Z,110.07
2022-12-18T07:55:22.442Z,116.95
2022-12-18T07:57:57.784Z,113.22
2022-12-18T08:00:33.501Z,110.57
2022-12-18T08:03:07.460Z,113.40
2022-12-18T08:05:39.456Z,108.95
2022-12-18T08:08:14.463Z,99.18
2022-12-18T08:10:45.929Z,100.13
2022-12-18T08:13:17.908Z,113.18
2022-12-18T08:15:50.359Z,112.00
2022-12-18T08:18:22.083Z,99.78
2022-12-18T08:20:53.995Z,104.88
2022-12-18T08:23:29.199Z,108.07
2022-12-18T08:26:03.409Z,103.68
2022-12-18T08:28:35.196Z,109.25
2022-12-18T08:31:07.716Z,90.57
2022-12-18T08:33:41.482Z,90.38
2022-12-18T08:36:14.354Z,94.85
2022-12-18T08:38:51.065Z,100.82
2022-12-18T08:41:23.398Z,102.43
2022-12-18T08:44:07.153Z,100.00
2022-12-18T08:46:44.808Z,99.00
2022-12-18T08:49:16.639Z,96.85
2022-12-18T08:51:49.205Z,100.40
2022-12-18T08:54:24.993Z,84.05
2022-12-18T08:56:57.158Z,87.70
2022-12-18T08:59:29.036Z,100.68
2022-12-18T09:02:02.425Z,93.32
2022-12-18T09:04:34.418Z,92.00
2022-12-18T09:07:05.814Z,85.53
2022-12-18T09:09:39.992Z,83.55
2022-12-18T09:12:11.566Z,97.53
2022-12-18T09:14:44.122Z,91.57
2022-12-18T09:17:16.186Z,95.45
2022-12-18T09:19:48.123Z,122.15
2022-12-18T09:22:20.303Z,93.45
2022-12-18T09:24:55.981Z,95.75
2022-12-18T09:27:28.114Z,112.88
2022-12-18T09:29:59.922Z,96.53
2022-12-18T09:32:32.115Z,109.85
2022-12-18T09:35:04.015Z,88.50
2022-12-18T09:37:36.135Z,85.88
2022-12-18T09:40:17.404Z,84.75
2022-12-18T09:42:59.829Z,95.32
2022-12-18T09:45:34.213Z,102.40
2022-12-18T09:48:08.365Z,86.57
2022-12-18T09:50:43.512Z,84.80
2022-12-18T09:53:21.484Z,94.13
2022-12-18T09:55:57.423Z,82.65
2022-12-18T09:58:36.063Z,85.63
2022-12-18T10:01:15.136Z,79.45
2022-12-18T10:03:47.403Z,83.68
2022-12-18T10:06:26.622Z,81.13
2022-12-18T10:09:03.676Z,75.38
2022-12-18T10:11:47.794Z,93.22
2022-12-18T10:14:28.812Z,89.32
2022-12-18T10:17:07.883Z,92.95
2022-12-18T10:19:50.457Z,91.88
2022-12-18T10:22:32.932Z,85.40
2022-12-18T10:25:11.145Z,86.00
2022-12-18T10:27:45.692Z,93.55
2022-12-18T10:30:22.404Z,106.05
2022-12-18T10:32:53.906Z,100.45
2022-12-18T10:35:29.143Z,99.13
2022-12-18T10:38:07.787Z,88.68
2022-12-18T10:40:55.113Z,94.95
2022-12-18T10:43:33.728Z,95.70
2022-12-18T10:46:21.685Z,91.82
2022-12-18T10:48:57.922Z,91.38
2022-12-18T10:51:34.737Z,76.78
2022-12-18T10:54:09.122Z,89.82
2022-12-18T10:56:43.742Z,88.03
2022-12-18T10:59:20.601Z,80.88
2022-12-18T11:01:56.264Z,87.93
2022-12-18T11:04:29.298Z,93.22
2022-12-18T11:07:05.800Z,85.63
2022-12-18T11:09:39.542Z,106.03
2022-12-18T11:12:22.558Z,94.47
2022-12-18T11:14:59.059Z,104.85
2022-12-18T11:17:34.821Z,85.85
2022-12-18T11:20:09.425Z,91.97
2022-12-18T11:22:43.447Z,80.10
2022-12-18T11:25:33.442Z,93.90
2022-12-18T11:28:08.946Z,97.68
2022-12-18T11:30:42.917Z,90.93
2022-12-18T11:33:20.467Z,100.93
2022-12-18T11:35:57.248Z,85.15
2022-12-18T11:38:34.980Z,90.22
2022-12-18T11:41:13.381Z,81.20
2022-12-18T11:43:54.095Z,93.03
2022-12-18T11:46:41.436Z,83.05
2022-12-18T11:49:18.504Z,80.00
2022-12-18T11:51:57.653Z,87.57
2022-12-18T11:54:29.215Z,69.78
2022-12-18T11:57:08.830Z,92.38
2022-12-18T11:59:52.285Z,84.57
2022-12-18T12:02:42.147Z,76.78
2022-12-18T12:05:29.575Z,76.00
2022-12-18T12:08:11.586Z,78.57
2022-12-18T12:10:56.863Z,81.43
2022-12-18T12:13:44.611Z,79.00
2022-12-18T12:16:22.376Z,73.88
2022-12-18T12:19:14.530Z,71.68
2022-12-18T12:21:50.547Z,70.00
2022-12-18T12:24:36.164Z,71.53
2022-12-18T12:27:17.884Z,78.40
2022-12-18T12:30:00.504Z,77.00
2022-12-18T12:32:47.957Z,67.75
2022-12-18T12:35:33.671Z,77.10
2022-12-18T12:38:14.725Z,65.88
2022-12-18T12:40:58.851Z,73.25
2022-12-18T12:43:46.106Z,72.03
2022-12-18T12:46:24.408Z,66.82
2022-12-18T12:49:00.953Z,64.55
2022-12-18T12:51:39.249Z,63.42
2022-12-18T12:54:28.857Z,72.53
2022-12-18T12:57:07.232Z,73.47
2022-12-18T12:59:51.450Z,58.80
2022-12-18T13:02:33.062Z,68.68
2022-12-18T13:05:14.009Z,65.68
2022-12-18T13:07:54.874Z,68.43
2022-12-18T13:10:37.259Z,61.25
2022-12-18T13:13:09.223Z,69.88
2022-12-18T13:15:44.302Z,65.32
2022-12-18T13:18:23.727Z,62.88
2022-12-18T13:21:05.981Z,70.90
2022-12-18T13:23:41.507Z,70.90
2022-12-18T13:26:37.506Z,73.88
2022-12-18T13:29:08.398Z,63.80
2022-12-18T13:32:15.827Z,68.95
2022-12-18T13:34:50.860Z,70.25
2022-12-18T13:37:47.339Z,62.28
2022-12-18T13:40:56.952Z,68.80
2022-12-18T13:43:35.756Z,72.30
2022-12-18T13:46:21.986Z,66.68
2022-12-18T13:48:58.544Z,71.15
2022-12-18T13:51:35.285Z,56.92
2022-12-18T13:54:17.692Z,59.88
2022-12-18T13:56:51.199Z,65.38
2022-12-18T13:59:28.393Z,68.32
2022-12-18T14:02:02.869Z,71.40
2022-12-18T14:04:37.642Z,76.53
2022-12-18T14:07:12.812Z,75.43
2022-12-18T14:09:50.700Z,65.40
2022-12-18T14:12:37.738Z,66.10
2022-12-18T14:15:31.964Z,76.60
2022-12-18T14:18:22.965Z,76.95
2022-12-18T14:20:56.496Z,87.78
2022-12-18T14:23:33.248Z,91.43
2022-12-18T14:26:06.454Z,85.00
2022-12-18T14:28:47.402Z,80.75
2022-12-18T14:31:25.938Z,83.85
2022-12-18T14:33:58.596Z,91.55
2022-12-18T14:36:32.509Z,82.03
2022-12-18T14:39:03.478Z,74.30
2022-12-18T14:41:34.867Z,76.43
2022-12-18T14:44:12.045Z,85.05
2022-12-18T14:46:50.112Z,78.30
2022-12-18T14:49:28.815Z,83.70
2022-12-18T14:52:04.037Z,56.22
2022-12-18T14:54:38.018Z,73.85
2022-12-18T14:57:22.670Z,78.40
2022-12-18T15:00:30.869Z,70.07
2022-12-18T15:03:38.026Z,63.30
2022-12-18T15:06:29.983Z,64.20
2022-12-18T15:09:02.693Z,58.03
2022-12-18T15:11:40.190Z,70.38
2022-12-18T15:14:35.933Z,66.40
2022-12-18T15:17:10.972Z,60.00
2022-12-18T15:19:48.049Z,52.05
2022-12-18T15:22:30.711Z,59.80
2022-12-18T15:25:03.594Z,61.47
2022-12-18T15:27:51.549Z,56.70
2022-12-18T15:30:26.713Z,61.47
2022-12-18T15:33:26.249Z,57.58
2022-12-18T15:36:05.271Z,47.38
2022-12-18T15:38:36.973Z,49.75
2022-12-18T15:41:13.962Z,53.30
2022-12-18T15:43:44.171Z,51.50
2022-12-18T15:46:19.765Z,56.67
2022-12-18T15:48:56.685Z,59.78
2022-12-18T15:51:38.750Z,54.67
2022-12-18T15:54:16.895Z,56.42
2022-12-18T15:57:01.093Z,57.42
2022-12-18T15:59:33.187Z,55.83
2022-12-18T16:02:05.474Z,41.80
2022-12-18T16:04:37.693Z,45.63
2022-12-18T16:07:17.571Z,51.80
2022-12-18T16:09:55.493Z,54.15
2022-12-18T16:12:29.510Z,51.33
2022-12-18T16:15:01.032Z,50.03
2022-12-18T16:17:33.011Z,55.85
2022-12-18T16:20:04.972Z,47.25
2022-12-18T16:22:39.752Z,45.40
2022-12-18T16:25:20.312Z,49.45
2022-12-18T16:27:52.929Z,44.65
2022-12-18T16:30:31.211Z,43.97
2022-12-18T16:33:08.242Z,43.75
2022-12-18T16:35:40.140Z,49.75
2022-12-18T16:38:17.881Z,50.22
2022-12-18T16:41:01.524Z,49.88
2022-12-18T16:43:33.546Z,48.08
2022-12-18T16:46:05.560Z,53.17
2022-12-18T16:48:40.067Z,52.33
2022-12-18T16:51:11.756Z,57.35
2022-12-18T16:53:46.652Z,56.90
2022-12-18T16:56:18.034Z,54.97
2022-12-18T16:58:54.928Z,54.70
2022-12-18T17:01:27.568Z,57.60
2022-12-18T17:04:02.260Z,61.95
2022-12-18T17:06:37.582Z,58.00
2022-12-18T17:09:17.273Z,43.33
2022-12-18T17:11:49.187Z,50.30
2022-12-18T17:14:24.812Z,69.70
2022-12-18T17:17:20.242Z,59.20
2022-12-18T17:19:50.962Z,62.58
2022-12-18T17:22:23.452Z,60.40
2022-12-18T17:24:59.869Z,68.80
2022-12-18T17:27:31.536Z,74.15
2022-12-18T17:30:03.329Z,64.75
2022-12-18T17:32:35.196Z,64.07
2022-12-18T17:35:08.492Z,61.90
2022-12-18T17:37:41.999Z,66.05
2022-12-18T17:40:16.855Z,67.22
2022-12-18T17:42:48.560Z,69.05
2022-12-18T17:45:21.022Z,66.43
2022-12-18T17:47:58.239Z,73.78
2022-12-18T17:50:32.725Z,66.65
2022-12-18T17:53:05.836Z,66.78
2022-12-18T17:55:41.262Z,69.38
2022-12-18T17:58:13.178Z,64.10
2022-12-18T18:00:45.440Z,68.97
2022-12-18T18:03:17.160Z,66.50
2022-12-18T18:05:50.843Z,64.78
2022-12-18T18:08:22.571Z,63.28
2022-12-18T18:11:17.833Z,65.72
2022-12-18T18:14:01.846Z,70.45
2022-12-18T18:16:40.565Z,64.10
2022-12-18T18:19:16.956Z,73.82
2022-12-18T18:21:51.337Z,56.75
2022-12-18T18:24:26.407Z,70.18
2022-12-18T18:27:02.926Z,76.00
2022-12-18T18:29:35.358Z,72.55
2022-12-18T18:32:08.338Z,73.00
2022-12-18T18:34:46.686Z,73.72
2022-12-18T18:37:20.258Z,71.80
2022-12-18T18:39:52.093Z,74.00
2022-12-18T18:42:27.522Z,76.38
2022-12-18T18:44:59.180Z,71.88
2022-12-18T18:47:33.288Z,73.68
2022-12-18T18:50:05.063Z,77.13
2022-12-18T18:52:36.669Z,74.25
2022-12-18T18:55:18.576Z,89.82
2022-12-18T18:58:00.392Z,70.72
2022-12-18T19:00:33.520Z,78.68
2022-12-18T19:03:06.135Z,76.28
2022-12-18T19:05:42.965Z,78.25
2022-12-18T19:08:18.134Z,65.95
2022-12-18T19:10:54.568Z,67.30
2022-12-18T19:13:31.680Z,71.68
2022-12-18T19:16:10.233Z,81.30
2022-12-18T19:18:42.520Z,86.45
2022-12-18T19:21:14.789Z,72.45
2022-12-18T19:23:47.667Z,72.60
2022-12-18T19:26:30.167Z,71.10
2022-12-18T19:29:08.612Z,76.85
2022-12-18T19:31:42.174Z,79.72
2022-12-18T19:34:15.323Z,85.38
2022-12-18T19:36:46.747Z,72.35
2022-12-18T19:39:21.251Z,84.93
2022-12-18T19:41:52.716Z,81.13
2022-12-18T19:44:28.321Z,78.35
2022-12-18T19:46:59.820Z,85.97
2022-12-18T19:49:32.971Z,80.65
2022-12-18T19:52:05.648Z,83.60
2022-12-18T19:54:37.407Z,79.55
2022-12-18T19:57:11.804Z,73.35
2022-12-18T19:59:46.625Z,79.38
2022-12-18T20:02:21.912Z,80.68
2022-12-18T20:04:54.989Z,74.25
2022-12-18T20:07:31.250Z,86.78
2022-12-18T20:10:08.937Z,83.97
2022-12-18T20:12:42.422Z,78.75
2022-12-18T20:15:17.420Z,91.97
2022-12-18T20:17:48.943Z,84.68
2022-12-18T20:20:23.040Z,72.53
2022-12-18T20:22:54.629Z,79.97
2022-12-18T20:25:26.781Z,77.15
2022-12-18T20:27:58.329Z,78.07
2022-12-18T20:30:32.718Z,94.57
2022-12-18T20:33:04.191Z,83.40
2022-12-18T20:35:36.567Z,86.13
2022-12-18T20:38:08.544Z,64.15
2022-12-18T20:40:43.647Z,65.28
2022-12-18T20:43:17.318Z,64.82
2022-12-18T20:45:52.097Z,75.07
2022-12-18T20:48:26.641Z,74.85
2022-12-18T20:51:03.887Z,80.75
2022-12-18T20:53:36.939Z,73.05
2022-12-18T20:56:16.525Z,59.20
2022-12-18T20:58:53.975Z,68.93
2022-12-18T21:01:31.511Z,68.72
2022-12-18T21:04:03.339Z,82.20
2022-12-18T21:06:38.917Z,77.60
2022-12-18T21:09:10.457Z,72.70
2022-12-18T21:11:54.334Z,75.75
2022-12-18T21:14:28.086Z,77.00
2022-12-18T21:17:03.962Z,82.50
2022-12-18T21:19:36.064Z,71.93
2022-12-18T21:22:08.128Z,79.63
2022-12-18T21:24:40.029Z,72.68
2022-12-18T21:27:12.214Z,78.05
2022-12-18T21:29:48.272Z,78.20
2022-12-18T21:32:26.155Z,81.63
2022-12-18T21:35:07.950Z,77.22
2022-12-18T21:37:39.906Z,76.63
2022-12-18T21:40:13.314Z,67.00
2022-12-18T21:43:00.059Z,82.43
2022-12-18T21:45:35.260Z,81.45
2022-12-18T21:48:10.157Z,79.45
2022-12-18T21:50:41.670Z,73.57
2022-12-18T21:53:13.409Z,75.78
2022-12-18T21:55:45.303Z,79.30
2022-12-18T21:58:17.512Z,73.03
2022-12-18T22:00:48.962Z,70.03
2022-12-18T22:03:28.956Z,74.20
2022-12-18T22:06:09.323Z,73.80
2022-12-18T22:08:43.717Z,77.18
2022-12-18T22:11:16.007Z,67.53
2022-12-18T22:13:52.538Z,80.00
2022-12-18T22:16:24.220Z,78.70
2022-12-18T22:18:59.062Z,67.50
2022-12-18T22:21:32.907Z,68.65
2022-12-18T22:24:06.643Z,67.82
2022-12-18T22:26:40.553Z,61.85
2022-12-18T22:29:33.486Z,70.40
2022-12-18T22:32:06.657Z,60.95
2022-12-18T22:34:41.679Z,64.30
2022-12-18T22:37:15.045Z,69.32
2022-12-18T22:39:55.966Z,68.35
2022-12-18T22:42:35.740Z,62.80
2022-12-18T22:45:08.394Z,70.95
2022-12-18T22:47:45.314Z,59.80
2022-12-18T22:50:19.912Z,56.17
2022-12-18T22:52:57.560Z,53.33
2022-12-18T22:55:31.986Z,67.10
2022-12-18T22:58:04.221Z,60.47
2022-12-18T23:00:36.560Z,62.78
2022-12-18T23:03:10.230Z,61.08
2022-12-18T23:05:45.582Z,63.47
2022-12-18T23:08:17.882Z,56.30
2022-12-18T23:10:50.154Z,65.55
2022-12-18T23:13:22.093Z,60.15
2022-12-18T23:15:54.493Z,71.15
2022-12-18T23:18:26.441Z,63.80
2022-12-18T23:21:01.823Z,60.35
2022-12-18T23:23:37.723Z,57.85
2022-12-18T23:26:12.901Z,56.15
2022-12-18T23:28:45.344Z,61.42
2022-12-18T23:31:19.783Z,56.25
2022-12-18T23:33:52.382Z,59.88
2022-12-18T23:36:28.653Z,42.45
2022-12-18T23:39:04.542Z,63.05
2022-12-18T23:41:37.111Z,59.35
2022-12-18T23:44:09.245Z,64.47
2022-12-18T23:46:41.693Z,50.50
2022-12-18T23:49:13.992Z,59.00
2022-12-18T23:51:49.004Z,57.47
2022-12-18T23:54:22.642Z,59.25
2022-12-18T23:57:05.870Z,57.15
2022-12-18T23:59:37.953Z,57.03
